sensor_id;sensor_type;location;lat;lon;timestamp;P1;durP1;ratioP1;P2;durP2;ratioP2
58472;SDS011;44775;51.564;5.460;2022-12-18T00:01:14;111.97;;;39.38;;
58472;SDS011;44775;51.564;5.460;2022-12-18T00:03:44;102.65;;;37.92;;
58472;SDS011;44775;51.564;5.460;2022-12-18T00:06:10;106.95;;;38.67;;
58472;SDS011;44775;51.564;5.460;2022-12-18T00:08:36;114.00;;;39.72;;
58472;SDS011;44775;51.564;5.460;2022-12-18T00:11:05;112.78;;;39.70;;
58472;SDS011;44775;51.564;5.460;2022-12-18T00:13:32;121.20;;;42.75;;
58472;SDS011;44775;51.564;5.460;2022-12-18T00:16:02;115.65;;;40.88;;
58472;SDS011;44775;51.564;5.460;2022-12-18T00:18:28;108.50;;;37.40;;
58472;SDS011;44775;51.564;5.460;2022-12-18T00:20:53;106.47;;;37.47;;
58472;SDS011;44775;51.564;5.460;2022-12-18T00:23:19;105.43;;;38.00;;
58472;SDS011;44775;51.564;5.460;2022-12-18T00:25:44;115.95;;;40.22;;
58472;SDS011;44775;51.564;5.460;2022-12-18T00:28:10;102.85;;;38.60;;
58472;SDS011;44775;51.564;5.460;2022-12-18T00:30:35;112.53;;;39.58;;
58472;SDS011;44775;51.564;5.460;2022-12-18T00:33:00;109.13;;;37.95;;
58472;SDS011;44775;51.564;5.460;2022-12-18T00:35:26;108.07;;;37.75;;
58472;SDS011;44775;51.564;5.460;2022-12-18T00:37:51;103.03;;;37.95;;
58472;SDS011;44775;51.564;5.460;2022-12-18T00:40:17;109.75;;;38.90;;
58472;SDS011;44775;51.564;5.460;2022-12-18T00:42:42;110.80;;;39.33;;
58472;SDS011;44775;51.564;5.460;2022-12-18T00:45:20;99.70;;;35.78;;
58472;SDS011;44775;51.564;5.460;2022-12-18T00:47:55;97.60;;;36.67;;
58472;SDS011;44775;51.564;5.460;2022-12-18T00:50:21;106.53;;;39.88;;
58472;SDS011;44775;51.564;5.460;2022-12-18T00:52:48;100.25;;;36.53;;
58472;SDS011;44775;51.564;5.460;2022-12-18T00:55:13;94.75;;;36.35;;
58472;SDS011;44775;51.564;5.460;2022-12-18T00:57:39;100.93;;;36.17;;
58472;SDS011;44775;51.564;5.460;2022-12-18T01:00:06;96.20;;;36.95;;
58472;SDS011;44775;51.564;5.460;2022-12-18T01:02:32;90.45;;;34.90;;
58472;SDS011;44775;51.564;5.460;2022-12-18T01:04:58;96.07;;;35.80;;
58472;SDS011;44775;51.564;5.460;2022-12-18T01:07:23;100.32;;;37.17;;
58472;SDS011;44775;51.564;5.460;2022-12-18T01:09:49;96.30;;;36.33;;
58472;SDS011;44775;51.564;5.460;2022-12-18T01:12:14;92.10;;;33.70;;
58472;SDS011;44775;51.564;5.460;2022-12-18T01:14:40;92.18;;;35.30;;
58472;SDS011;44775;51.564;5.460;2022-12-18T01:17:05;94.32;;;34.80;;
58472;SDS011;44775;51.564;5.460;2022-12-18T01:19:31;94.55;;;36.05;;
58472;SDS011;44775;51.564;5.460;2022-12-18T01:21:57;94.15;;;34.88;;
58472;SDS011;44775;51.564;5.460;2022-12-18T01:24:22;94.32;;;35.35;;
58472;SDS011;44775;51.564;5.460;2022-12-18T01:26:48;89.43;;;35.97;;
58472;SDS011;44775;51.564;5.460;2022-12-18T01:29:14;85.97;;;32.03;;
58472;SDS011;44775;51.564;5.460;2022-12-18T01:31:39;84.88;;;34.03;;
58472;SDS011;44775;51.564;5.460;2022-12-18T01:34:04;93.03;;;35.50;;
58472;SDS011;44775;51.564;5.460;2022-12-18T01:36:34;89.95;;;34.50;;
58472;SDS011;44775;51.564;5.460;2022-12-18T01:39:05;92.25;;;33.92;;
58472;SDS011;44775;51.564;5.460;2022-12-18T01:41:33;80.70;;;31.30;;
58472;SDS011;44775;51.564;5.460;2022-12-18T01:47:18;89.95;;;36.15;;
58472;SDS011;44775;51.564;5.460;2022-12-18T01:49:48;85.18;;;34.85;;
58472;SDS011;44775;51.564;5.460;2022-12-18T01:52:14;84.82;;;34.30;;
58472;SDS011;44775;51.564;5.460;2022-12-18T01:54:41;85.15;;;33.92;;
58472;SDS011;44775;51.564;5.460;2022-12-18T01:57:07;91.32;;;34.60;;
58472;SDS011;44775;51.564;5.460;2022-12-18T01:59:33;81.45;;;33.78;;
58472;SDS011;44775;51.564;5.460;2022-12-18T02:02:00;85.88;;;35.67;;
58472;SDS011;44775;51.564;5.460;2022-12-18T02:04:27;84.25;;;35.80;;
58472;SDS011;44775;51.564;5.460;2022-12-18T02:09:35;81.72;;;33.47;;
58472;SDS011;44775;51.564;5.460;2022-12-18T02:17:18;86.75;;;35.97;;
58472;SDS011;44775;51.564;5.460;2022-12-18T02:20:05;88.35;;;35.15;;
58472;SDS011;44775;51.564;5.460;2022-12-18T02:27:45;87.57;;;35.15;;
58472;SDS011;44775;51.564;5.460;2022-12-18T02:30:14;83.75;;;33.22;;
58472;SDS011;44775;51.564;5.460;2022-12-18T02:32:42;80.45;;;33.10;;
58472;SDS011;44775;51.564;5.460;2022-12-18T02:35:12;79.20;;;33.45;;
58472;SDS011;44775;51.564;5.460;2022-12-18T02:37:42;79.72;;;33.25;;
58472;SDS011;44775;51.564;5.460;2022-12-18T02:40:10;77.45;;;33.90;;
58472;SDS011;44775;51.564;5.460;2022-12-18T02:42:36;74.00;;;32.67;;
58472;SDS011;44775;51.564;5.460;2022-12-18T02:45:02;78.57;;;34.85;;
58472;SDS011;44775;51.564;5.460;2022-12-18T02:47:29;79.78;;;32.92;;
58472;SDS011;44775;51.564;5.460;2022-12-18T02:54:55;76.70;;;33.38;;
58472;SDS011;44775;51.564;5.460;2022-12-18T03:00:13;79.25;;;34.28;;
58472;SDS011;44775;51.564;5.460;2022-12-18T03:02:45;70.15;;;31.30;;
58472;SDS011;44775;51.564;5.460;2022-12-18T03:05:22;73.43;;;31.55;;
58472;SDS011;44775;51.564;5.460;2022-12-18T03:10:34;71.13;;;31.83;;
58472;SDS011;44775;51.564;5.460;2022-12-18T03:13:06;71.78;;;31.20;;
58472;SDS011;44775;51.564;5.460;2022-12-18T03:15:54;73.95;;;30.98;;
58472;SDS011;44775;51.564;5.460;2022-12-18T03:18:23;71.23;;;30.87;;
58472;SDS011;44775;51.564;5.460;2022-12-18T03:21:10;68.85;;;29.52;;
58472;SDS011;44775;51.564;5.460;2022-12-18T03:23:47;66.20;;;30.27;;
58472;SDS011;44775;51.564;5.460;2022-12-18T03:26:19;65.50;;;30.65;;
58472;SDS011;44775;51.564;5.460;2022-12-18T03:28:51;73.15;;;32.30;;
58472;SDS011;44775;51.564;5.460;2022-12-18T03:31:21;72.25;;;33.00;;
58472;SDS011;44775;51.564;5.460;2022-12-18T03:33:58;69.00;;;32.35;;
58472;SDS011;44775;51.564;5.460;2022-12-18T03:36:27;73.40;;;31.45;;
58472;SDS011;44775;51.564;5.460;2022-12-18T03:38:58;66.97;;;29.63;;
58472;SDS011;44775;51.564;5.460;2022-12-18T03:46:25;57.35;;;27.90;;
58472;SDS011;44775;51.564;5.460;2022-12-18T03:49:02;61.30;;;28.95;;
58472;SDS011;44775;51.564;5.460;2022-12-18T03:51:40;63.63;;;28.63;;
58472;SDS011;44775;51.564;5.460;2022-12-18T03:54:13;61.70;;;28.38;;
58472;SDS011;44775;51.564;5.460;2022-12-18T03:56:40;62.33;;;26.95;;
58472;SDS011;44775;51.564;5.460;2022-12-18T03:59:09;62.65;;;29.75;;
58472;SDS011;44775;51.564;5.460;2022-12-18T04:01:39;64.72;;;28.50;;
58472;SDS011;44775;51.564;5.460;2022-12-18T04:04:11;63.40;;;28.70;;
58472;SDS011;44775;51.564;5.460;2022-12-18T04:06:39;65.22;;;29.33;;
58472;SDS011;44775;51.564;5.460;2022-12-18T04:09:06;59.78;;;27.30;;
58472;SDS011;44775;51.564;5.460;2022-12-18T04:11:32;66.45;;;27.50;;
58472;SDS011;44775;51.564;5.460;2022-12-18T04:13:58;59.05;;;27.20;;
58472;SDS011;44775;51.564;5.460;2022-12-18T04:16:24;54.97;;;26.17;;
58472;SDS011;44775;51.564;5.460;2022-12-18T04:18:50;60.75;;;27.02;;
58472;SDS011;44775;51.564;5.460;2022-12-18T04:21:16;59.25;;;28.05;;
58472;SDS011;44775;51.564;5.460;2022-12-18T04:23:42;61.88;;;29.05;;
58472;SDS011;44775;51.564;5.460;2022-12-18T04:26:07;61.85;;;27.63;;
58472;SDS011;44775;51.564;5.460;2022-12-18T04:28:32;61.13;;;27.95;;
58472;SDS011;44775;51.564;5.460;2022-12-18T04:30:58;63.30;;;27.35;;
58472;SDS011;44775;51.564;5.460;2022-12-18T04:33:23;53.92;;;25.38;;
58472;SDS011;44775;51.564;5.460;2022-12-18T04:35:49;55.83;;;26.20;;
58472;SDS011;44775;51.564;5.460;2022-12-18T04:38:14;59.50;;;27.13;;
58472;SDS011;44775;51.564;5.460;2022-12-18T04:40:40;53.60;;;26.17;;
58472;SDS011;44775;51.564;5.460;2022-12-18T04:43:06;47.78;;;21.33;;
58472;SDS011;44775;51.564;5.460;2022-12-18T04:45:31;54.80;;;24.63;;
58472;SDS011;44775;51.564;5.460;2022-12-18T04:47:59;57.50;;;26.70;;
58472;SDS011;44775;51.564;5.460;2022-12-18T04:50:25;54.58;;;26.65;;
58472;SDS011;44775;51.564;5.460;2022-12-18T04:52:51;55.63;;;26.42;;
58472;SDS011;44775;51.564;5.460;2022-12-18T04:55:17;48.95;;;23.67;;
58472;SDS011;44775;51.564;5.460;2022-12-18T04:57:42;53.42;;;25.25;;
58472;SDS011;44775;51.564;5.460;2022-12-18T05:00:08;55.75;;;26.50;;
58472;SDS011;44775;51.564;5.460;2022-12-18T05:02:34;49.17;;;24.52;;
58472;SDS011;44775;51.564;5.460;2022-12-18T05:05:00;48.67;;;24.73;;
58472;SDS011;44775;51.564;5.460;2022-12-18T05:07:25;52.17;;;26.58;;
58472;SDS011;44775;51.564;5.460;2022-12-18T05:09:51;57.08;;;26.52;;
58472;SDS011;44775;51.564;5.460;2022-12-18T05:12:16;61.45;;;25.85;;
58472;SDS011;44775;51.564;5.460;2022-12-18T05:14:42;54.35;;;26.25;;
58472;SDS011;44775;51.564;5.460;2022-12-18T05:17:07;53.22;;;25.10;;
58472;SDS011;44775;51.564;5.460;2022-12-18T05:19:33;53.80;;;26.63;;
58472;SDS011;44775;51.564;5.460;2022-12-18T05:21:58;49.95;;;23.95;;
58472;SDS011;44775;51.564;5.460;2022-12-18T05:24:24;55.80;;;25.63;;
58472;SDS011;44775;51.564;5.460;2022-12-18T05:26:49;53.22;;;24.40;;
58472;SDS011;44775;51.564;5.460;2022-12-18T05:29:15;52.38;;;24.23;;
58472;SDS011;44775;51.564;5.460;2022-12-18T05:31:40;54.65;;;24.77;;
58472;SDS011;44775;51.564;5.460;2022-12-18T05:34:06;54.13;;;26.10;;
58472;SDS011;44775;51.564;5.460;2022-12-18T05:36:32;53.17;;;26.13;;
58472;SDS011;44775;51.564;5.460;2022-12-18T05:38:57;52.38;;;24.83;;
58472;SDS011;44775;51.564;5.460;2022-12-18T05:41:23;50.33;;;24.52;;
58472;SDS011;44775;51.564;5.460;2022-12-18T05:43:48;54.83;;;24.23;;
58472;SDS011;44775;51.564;5.460;2022-12-18T05:46:15;45.15;;;24.58;;
58472;SDS011;44775;51.564;5.460;2022-12-18T05:48:44;49.33;;;24.65;;
58472;SDS011;44775;51.564;5.460;2022-12-18T05:51:11;48.83;;;25.75;;
58472;SDS011;44775;51.564;5.460;2022-12-18T05:53:39;54.10;;;27.65;;
58472;SDS011;44775;51.564;5.460;2022-12-18T05:56:07;52.83;;;27.73;;
58472;SDS011;44775;51.564;5.460;2022-12-18T05:58:34;54.25;;;27.13;;
58472;SDS011;44775;51.564;5.460;2022-12-18T06:01:21;46.65;;;24.48;;
58472;SDS011;44775;51.564;5.460;2022-12-18T06:03:49;47.05;;;24.20;;
58472;SDS011;44775;51.564;5.460;2022-12-18T06:06:20;46.75;;;24.17;;
58472;SDS011;44775;51.564;5.460;2022-12-18T06:08:50;47.72;;;24.98;;
58472;SDS011;44775;51.564;5.460;2022-12-18T06:11:17;53.10;;;25.52;;
58472;SDS011;44775;51.564;5.460;2022-12-18T06:13:44;50.40;;;24.98;;
58472;SDS011;44775;51.564;5.460;2022-12-18T06:16:11;44.95;;;23.38;;
58472;SDS011;44775;51.564;5.460;2022-12-18T06:18:37;54.55;;;26.88;;
58472;SDS011;44775;51.564;5.460;2022-12-18T06:21:02;41.40;;;20.75;;
58472;SDS011;44775;51.564;5.460;2022-12-18T06:23:28;51.42;;;24.73;;
58472;SDS011;44775;51.564;5.460;2022-12-18T06:25:53;47.80;;;24.30;;
58472;SDS011;44775;51.564;5.460;2022-12-18T06:28:19;50.90;;;23.38;;
58472;SDS011;44775;51.564;5.460;2022-12-18T06:30:45;47.55;;;22.67;;
58472;SDS011;44775;51.564;5.460;2022-12-18T06:33:12;55.92;;;26.55;;
58472;SDS011;44775;51.564;5.460;2022-12-18T06:35:37;51.33;;;24.95;;
58472;SDS011;44775;51.564;5.460;2022-12-18T06:38:03;52.50;;;24.08;;
58472;SDS011;44775;51.564;5.460;2022-12-18T06:40:28;53.28;;;24.95;;
58472;SDS011;44775;51.564;5.460;2022-12-18T06:42:54;46.05;;;23.58;;
58472;SDS011;44775;51.564;5.460;2022-12-18T06:45:20;53.63;;;25.17;;
58472;SDS011;44775;51.564;5.460;2022-12-18T06:47:46;48.33;;;24.55;;
58472;SDS011;44775;51.564;5.460;2022-12-18T06:50:11;49.10;;;24.38;;
58472;SDS011;44775;51.564;5.460;2022-12-18T06:52:38;48.75;;;26.42;;
58472;SDS011;44775;51.564;5.460;2022-12-18T06:55:05;53.20;;;25.85;;
58472;SDS011;44775;51.564;5.460;2022-12-18T06:57:34;47.25;;;24.52;;
58472;SDS011;44775;51.564;5.460;2022-12-18T07:00:00;54.70;;;26.25;;
58472;SDS011;44775;51.564;5.460;2022-12-18T07:02:25;49.17;;;24.85;;
58472;SDS011;44775;51.564;5.460;2022-12-18T07:04:51;47.80;;;23.58;;
58472;SDS011;44775;51.564;5.460;2022-12-18T07:07:16;49.40;;;24.30;;
58472;SDS011;44775;51.564;5.460;2022-12-18T07:09:42;54.75;;;25.98;;
58472;SDS011;44775;51.564;5.460;2022-12-18T07:12:07;48.67;;;25.45;;
58472;SDS011;44775;51.564;5.460;2022-12-18T07:14:33;51.00;;;25.13;;
58472;SDS011;44775;51.564;5.460;2022-12-18T07:16:59;52.88;;;25.88;;
58472;SDS011;44775;51.564;5.460;2022-12-18T07:19:24;52.97;;;25.65;;
58472;SDS011;44775;51.564;5.460;2022-12-18T07:21:50;55.90;;;26.42;;
58472;SDS011;44775;51.564;5.460;2022-12-18T07:24:16;50.70;;;25.20;;
58472;SDS011;44775;51.564;5.460;2022-12-18T07:26:41;52.25;;;27.02;;
58472;SDS011;44775;51.564;5.460;2022-12-18T07:29:06;53.92;;;25.05;;
58472;SDS011;44775;51.564;5.460;2022-12-18T07:31:32;58.30;;;27.25;;
58472;SDS011;44775;51.564;5.460;2022-12-18T07:33:58;37.17;;;19.13;;
58472;SDS011;44775;51.564;5.460;2022-12-18T07:36:23;54.70;;;27.15;;
58472;SDS011;44775;51.564;5.460;2022-12-18T07:38:49;54.70;;;25.42;;
58472;SDS011;44775;51.564;5.460;2022-12-18T07:41:16;56.30;;;27.67;;
58472;SDS011;44775;51.564;5.460;2022-12-18T07:43:42;52.28;;;27.15;;
58472;SDS011;44775;51.564;5.460;2022-12-18T07:46:07;55.53;;;27.38;;
58472;SDS011;44775;51.564;5.460;2022-12-18T07:48:34;49.58;;;22.65;;
58472;SDS011;44775;51.564;5.460;2022-12-18T07:51:00;55.30;;;26.02;;
58472;SDS011;44775;51.564;5.460;2022-12-18T07:53:26;53.10;;;25.75;;
58472;SDS011;44775;51.564;5.460;2022-12-18T07:56:01;49.15;;;24.70;;
58472;SDS011;44775;51.564;5.460;2022-12-18T07:58:29;51.40;;;25.83;;
58472;SDS011;44775;51.564;5.460;2022-12-18T08:01:28;56.10;;;28.98;;
58472;SDS011;44775;51.564;5.460;2022-12-18T08:03:47;49.75;;;24.42;;
58472;SDS011;44775;51.564;5.460;2022-12-18T08:06:12;50.47;;;24.98;;
58472;SDS011;44775;51.564;5.460;2022-12-18T08:08:38;53.17;;;27.88;;
58472;SDS011;44775;51.564;5.460;2022-12-18T08:11:05;57.47;;;26.23;;
58472;SDS011;44775;51.564;5.460;2022-12-18T08:13:30;51.53;;;26.35;;
58472;SDS011;44775;51.564;5.460;2022-12-18T08:16:00;52.80;;;24.33;;
58472;SDS011;44775;51.564;5.460;2022-12-18T08:18:35;36.20;;;18.38;;
58472;SDS011;44775;51.564;5.460;2022-12-18T08:21:11;51.10;;;24.67;;
58472;SDS011;44775;51.564;5.460;2022-12-18T08:23:39;53.27;;;25.43;;
58472;SDS011;44775;51.564;5.460;2022-12-18T08:26:05;53.63;;;27.50;;
58472;SDS011;44775;51.564;5.460;2022-12-18T08:28:31;52.33;;;26.92;;
58472;SDS011;44775;51.564;5.460;2022-12-18T08:30:57;55.33;;;26.58;;
58472;SDS011;44775;51.564;5.460;2022-12-18T08:33:22;58.13;;;28.73;;
58472;SDS011;44775;51.564;5.460;2022-12-18T08:35:48;44.90;;;24.30;;
58472;SDS011;44775;51.564;5.460;2022-12-18T08:38:13;56.47;;;26.77;;
58472;SDS011;44775;51.564;5.460;2022-12-18T08:40:39;52.80;;;26.42;;
58472;SDS011;44775;51.564;5.460;2022-12-18T08:43:04;47.60;;;25.05;;
58472;SDS011;44775;51.564;5.460;2022-12-18T08:45:48;53.75;;;26.70;;
58472;SDS011;44775;51.564;5.460;2022-12-18T08:48:14;50.13;;;24.90;;
58472;SDS011;44775;51.564;5.460;2022-12-18T08:50:40;50.88;;;26.77;;
58472;SDS011;44775;51.564;5.460;2022-12-18T08:53:05;51.95;;;26.85;;
58472;SDS011;44775;51.564;5.460;2022-12-18T08:55:31;51.45;;;25.42;;
58472;SDS011;44775;51.564;5.460;2022-12-18T08:57:56;51.70;;;27.02;;
58472;SDS011;44775;51.564;5.460;2022-12-18T09:00:22;51.80;;;24.98;;
58472;SDS011;44775;51.564;5.460;2022-12-18T09:02:47;50.67;;;25.27;;
58472;SDS011;44775;51.564;5.460;2022-12-18T09:05:12;46.65;;;24.60;;
58472;SDS011;44775;51.564;5.460;2022-12-18T09:07:38;49.80;;;26.35;;
58472;SDS011;44775;51.564;5.460;2022-12-18T09:10:04;49.25;;;25.33;;
58472;SDS011;44775;51.564;5.460;2022-12-18T09:12:30;51.53;;;25.63;;
58472;SDS011;44775;51.564;5.460;2022-12-18T09:14:55;48.15;;;25.58;;
58472;SDS011;44775;51.564;5.460;2022-12-18T09:17:21;51.35;;;25.75;;
58472;SDS011;44775;51.564;5.460;2022-12-18T09:19:47;51.75;;;24.35;;
58472;SDS011;44775;51.564;5.460;2022-12-18T09:22:12;53.38;;;25.85;;
58472;SDS011;44775;51.564;5.460;2022-12-18T09:24:38;50.20;;;25.85;;
58472;SDS011;44775;51.564;5.460;2022-12-18T09:27:03;45.08;;;24.75;;
58472;SDS011;44775;51.564;5.460;2022-12-18T09:29:29;46.72;;;24.60;;
58472;SDS011;44775;51.564;5.460;2022-12-18T09:31:55;44.38;;;21.35;;
58472;SDS011;44775;51.564;5.460;2022-12-18T09:34:20;47.10;;;25.10;;
58472;SDS011;44775;51.564;5.460;2022-12-18T09:36:46;49.88;;;25.15;;
58472;SDS011;44775;51.564;5.460;2022-12-18T09:39:12;46.80;;;25.67;;
58472;SDS011;44775;51.564;5.460;2022-12-18T09:41:42;47.20;;;25.05;;
58472;SDS011;44775;51.564;5.460;2022-12-18T09:44:17;45.45;;;24.40;;
58472;SDS011;44775;51.564;5.460;2022-12-18T09:46:45;49.05;;;24.25;;
58472;SDS011;44775;51.564;5.460;2022-12-18T09:49:18;42.83;;;21.45;;
58472;SDS011;44775;51.564;5.460;2022-12-18T09:51:51;45.97;;;24.08;;
58472;SDS011;44775;51.564;5.460;2022-12-18T09:54:30;44.35;;;23.67;;
58472;SDS011;44775;51.564;5.460;2022-12-18T09:57:01;47.15;;;25.33;;
58472;SDS011;44775;51.564;5.460;2022-12-18T09:59:37;43.92;;;23.33;;
58472;SDS011;44775;51.564;5.460;2022-12-18T10:02:38;44.58;;;25.30;;
58472;SDS011;44775;51.564;5.460;2022-12-18T10:05:02;42.03;;;21.92;;
58472;SDS011;44775;51.564;5.460;2022-12-18T10:07:49;38.55;;;20.13;;
58472;SDS011;44775;51.564;5.460;2022-12-18T10:10:32;41.38;;;23.38;;
58472;SDS011;44775;51.564;5.460;2022-12-18T10:18:35;43.75;;;24.20;;
58472;SDS011;44775;51.564;5.460;2022-12-18T10:21:23;43.45;;;23.02;;
58472;SDS011;44775;51.564;5.460;2022-12-18T10:26:40;43.85;;;21.52;;
58472;SDS011;44775;51.564;5.460;2022-12-18T10:29:09;42.10;;;24.13;;
58472;SDS011;44775;51.564;5.460;2022-12-18T10:31:37;42.22;;;23.30;;
58472;SDS011;44775;51.564;5.460;2022-12-18T10:34:02;41.60;;;23.55;;
58472;SDS011;44775;51.564;5.460;2022-12-18T10:36:28;47.00;;;26.02;;
58472;SDS011;44775;51.564;5.460;2022-12-18T10:38:54;43.03;;;23.67;;
58472;SDS011;44775;51.564;5.460;2022-12-18T10:41:41;45.25;;;24.95;;
58472;SDS011;44775;51.564;5.460;2022-12-18T10:44:16;41.40;;;21.88;;
58472;SDS011;44775;51.564;5.460;2022-12-18T10:46:43;45.45;;;24.27;;
58472;SDS011;44775;51.564;5.460;2022-12-18T10:49:22;42.33;;;21.33;;
58472;SDS011;44775;51.564;5.460;2022-12-18T10:52:14;41.20;;;22.90;;
58472;SDS011;44775;51.564;5.460;2022-12-18T10:54:57;41.70;;;22.73;;
58472;SDS011;44775;51.564;5.460;2022-12-18T10:59:57;42.13;;;23.55;;
58472;SDS011;44775;51.564;5.460;2022-12-18T11:02:28;41.95;;;23.13;;
58472;SDS011;44775;51.564;5.460;2022-12-18T11:05:00;39.55;;;20.45;;
58472;SDS011;44775;51.564;5.460;2022-12-18T11:07:26;43.08;;;24.45;;
58472;SDS011;44775;51.564;5.460;2022-12-18T11:10:18;41.92;;;23.10;;
58472;SDS011;44775;51.564;5.460;2022-12-18T11:12:45;41.30;;;22.83;;
58472;SDS011;44775;51.564;5.460;2022-12-18T11:15:21;36.38;;;19.25;;
58472;SDS011;44775;51.564;5.460;2022-12-18T11:17:52;36.30;;;20.58;;
58472;SDS011;44775;51.564;5.460;2022-12-18T11:20:36;42.83;;;22.13;;
58472;SDS011;44775;51.564;5.460;2022-12-18T11:23:05;36.30;;;20.70;;
58472;SDS011;44775;51.564;5.460;2022-12-18T11:25:37;36.13;;;21.92;;
58472;SDS011;44775;51.564;5.460;2022-12-18T11:30:47;40.45;;;22.40;;
58472;SDS011;44775;51.564;5.460;2022-12-18T11:33:14;38.08;;;21.73;;
58472;SDS011;44775;51.564;5.460;2022-12-18T11:35:53;41.30;;;23.70;;
58472;SDS011;44775;51.564;5.460;2022-12-18T11:41:00;39.80;;;23.02;;
58472;SDS011;44775;51.564;5.460;2022-12-18T11:46:24;43.63;;;23.65;;
58472;SDS011;44775;51.564;5.460;2022-12-18T11:48:58;38.85;;;20.95;;
58472;SDS011;44775;51.564;5.460;2022-12-18T11:51:41;34.80;;;21.05;;
58472;SDS011;44775;51.564;5.460;2022-12-18T11:54:14;39.80;;;22.65;;
58472;SDS011;44775;51.564;5.460;2022-12-18T11:59:21;37.15;;;20.20;;
58472;SDS011;44775;51.564;5.460;2022-12-18T12:07:54;38.55;;;22.17;;
58472;SDS011;44775;51.564;5.460;2022-12-18T12:13:22;40.13;;;22.63;;
58472;SDS011;44775;51.564;5.460;2022-12-18T12:21:12;40.50;;;23.58;;
58472;SDS011;44775;51.564;5.460;2022-12-18T12:23:51;42.28;;;23.85;;
58472;SDS011;44775;51.564;5.460;2022-12-18T12:31:57;38.08;;;20.83;;
58472;SDS011;44775;51.564;5.460;2022-12-18T12:34:41;38.58;;;22.65;;
58472;SDS011;44775;51.564;5.460;2022-12-18T12:40:34;38.63;;;19.67;;
58472;SDS011;44775;51.564;5.460;2022-12-18T12:43:04;39.55;;;24.60;;
58472;SDS011;44775;51.564;5.460;2022-12-18T12:46:03;40.13;;;22.30;;
58472;SDS011;44775;51.564;5.460;2022-12-18T12:48:43;40.80;;;22.67;;
58472;SDS011;44775;51.564;5.460;2022-12-18T12:51:22;41.45;;;22.80;;
58472;SDS011;44775;51.564;5.460;2022-12-18T12:54:14;36.08;;;19.13;;
58472;SDS011;44775;51.564;5.460;2022-12-18T12:57:16;38.75;;;22.02;;
58472;SDS011;44775;51.564;5.460;2022-12-18T12:59:40;41.75;;;23.15;;
58472;SDS011;44775;51.564;5.460;2022-12-18T13:07:51;45.80;;;24.83;;
58472;SDS011;44775;51.564;5.460;2022-12-18T13:10:24;43.25;;;24.30;;
58472;SDS011;44775;51.564;5.460;2022-12-18T13:12:59;38.80;;;22.92;;
58472;SDS011;44775;51.564;5.460;2022-12-18T13:20:49;38.03;;;22.13;;
58472;SDS011;44775;51.564;5.460;2022-12-18T13:23:27;40.80;;;22.20;;
58472;SDS011;44775;51.564;5.460;2022-12-18T13:26:00;43.25;;;23.25;;
58472;SDS011;44775;51.564;5.460;2022-12-18T13:36:48;37.42;;;21.95;;
58472;SDS011;44775;51.564;5.460;2022-12-18T13:41:42;37.60;;;21.45;;
58472;SDS011;44775;51.564;5.460;2022-12-18T13:44:31;34.47;;;20.00;;
58472;SDS011;44775;51.564;5.460;2022-12-18T13:47:02;38.85;;;22.38;;
58472;SDS011;44775;51.564;5.460;2022-12-18T13:49:41;42.72;;;22.58;;
58472;SDS011;44775;51.564;5.460;2022-12-18T13:52:16;38.08;;;22.05;;
58472;SDS011;44775;51.564;5.460;2022-12-18T13:54:47;39.35;;;23.05;;
58472;SDS011;44775;51.564;5.460;2022-12-18T13:57:29;37.03;;;21.15;;
58472;SDS011;44775;51.564;5.460;2022-12-18T14:00:40;36.92;;;20.02;;
58472;SDS011;44775;51.564;5.460;2022-12-18T14:02:58;38.83;;;21.38;;
58472;SDS011;44775;51.564;5.460;2022-12-18T14:05:27;35.72;;;21.13;;
58472;SDS011;44775;51.564;5.460;2022-12-18T14:07:55;35.55;;;20.13;;
58472;SDS011;44775;51.564;5.460;2022-12-18T14:10:26;38.60;;;21.67;;
58472;SDS011;44775;51.564;5.460;2022-12-18T14:12:52;41.33;;;21.80;;
58472;SDS011;44775;51.564;5.460;2022-12-18T14:17:50;36.42;;;21.45;;
58472;SDS011;44775;51.564;5.460;2022-12-18T14:20:24;38.92;;;22.00;;
58472;SDS011;44775;51.564;5.460;2022-12-18T14:22:51;36.25;;;21.83;;
58472;SDS011;44775;51.564;5.460;2022-12-18T14:25:21;36.72;;;20.92;;
58472;SDS011;44775;51.564;5.460;2022-12-18T14:27:53;38.13;;;22.65;;
58472;SDS011;44775;51.564;5.460;2022-12-18T14:30:45;39.17;;;23.00;;
58472;SDS011;44775;51.564;5.460;2022-12-18T14:33:12;39.65;;;21.98;;
58472;SDS011;44775;51.564;5.460;2022-12-18T14:35:42;37.45;;;19.95;;
58472;SDS011;44775;51.564;5.460;2022-12-18T14:38:33;39.63;;;21.38;;
58472;SDS011;44775;51.564;5.460;2022-12-18T14:41:04;32.58;;;16.73;;
58472;SDS011;44775;51.564;5.460;2022-12-18T14:43:34;39.38;;;22.33;;
58472;SDS011;44775;51.564;5.460;2022-12-18T14:46:01;36.85;;;21.42;;
58472;SDS011;44775;51.564;5.460;2022-12-18T14:53:43;36.40;;;20.00;;
58472;SDS011;44775;51.564;5.460;2022-12-18T14:56:18;36.30;;;20.90;;
58472;SDS011;44775;51.564;5.460;2022-12-18T15:04:29;36.97;;;20.52;;
58472;SDS011;44775;51.564;5.460;2022-12-18T15:09:28;40.42;;;23.02;;
58472;SDS011;44775;51.564;5.460;2022-12-18T15:11:58;39.15;;;21.77;;
58472;SDS011;44775;51.564;5.460;2022-12-18T15:17:18;38.20;;;20.52;;
58472;SDS011;44775;51.564;5.460;2022-12-18T15:19:47;36.25;;;21.33;;
58472;SDS011;44775;51.564;5.460;2022-12-18T15:22:22;35.47;;;21.55;;
58472;SDS011;44775;51.564;5.460;2022-12-18T15:24:50;39.42;;;22.08;;
58472;SDS011;44775;51.564;5.460;2022-12-18T15:27:21;33.47;;;16.48;;
58472;SDS011;44775;51.564;5.460;2022-12-18T15:32:30;38.65;;;21.00;;
58472;SDS011;44775;51.564;5.460;2022-12-18T15:37:36;35.35;;;19.02;;
58472;SDS011;44775;51.564;5.460;2022-12-18T15:40:14;36.30;;;20.90;;
58472;SDS011;44775;51.564;5.460;2022-12-18T15:42:40;32.53;;;17.92;;
58472;SDS011;44775;51.564;5.460;2022-12-18T15:45:25;35.50;;;18.65;;
58472;SDS011;44775;51.564;5.460;2022-12-18T15:47:50;38.00;;;20.75;;
58472;SDS011;44775;51.564;5.460;2022-12-18T15:50:16;38.67;;;21.15;;
58472;SDS011;44775;51.564;5.460;2022-12-18T15:52:42;40.53;;;20.40;;
58472;SDS011;44775;51.564;5.460;2022-12-18T15:55:14;38.90;;;20.70;;
58472;SDS011;44775;51.564;5.460;2022-12-18T15:58:00;28.60;;;15.90;;
58472;SDS011;44775;51.564;5.460;2022-12-18T16:00:26;33.65;;;18.92;;
58472;SDS011;44775;51.564;5.460;2022-12-18T16:02:52;42.00;;;23.25;;
58472;SDS011;44775;51.564;5.460;2022-12-18T16:05:18;37.53;;;21.65;;
58472;SDS011;44775;51.564;5.460;2022-12-18T16:07:45;35.78;;;19.55;;
58472;SDS011;44775;51.564;5.460;2022-12-18T16:10:11;38.25;;;20.70;;
58472;SDS011;44775;51.564;5.460;2022-12-18T16:12:36;37.72;;;21.52;;
58472;SDS011;44775;51.564;5.460;2022-12-18T16:15:03;36.58;;;20.13;;
58472;SDS011;44775;51.564;5.460;2022-12-18T16:17:29;41.75;;;22.70;;
58472;SDS011;44775;51.564;5.460;2022-12-18T16:19:54;40.97;;;22.20;;
58472;SDS011;44775;51.564;5.460;2022-12-18T16:22:21;36.58;;;21.42;;
58472;SDS011;44775;51.564;5.460;2022-12-18T16:24:49;32.63;;;19.48;;
58472;SDS011;44775;51.564;5.460;2022-12-18T16:27:16;39.35;;;22.00;;
58472;SDS011;44775;51.564;5.460;2022-12-18T16:29:42;39.58;;;21.58;;
58472;SDS011;44775;51.564;5.460;2022-12-18T16:32:14;25.73;;;15.38;;
58472;SDS011;44775;51.564;5.460;2022-12-18T16:34:44;39.00;;;22.52;;
58472;SDS011;44775;51.564;5.460;2022-12-18T16:37:12;37.00;;;21.50;;